createdAt,value
2019-03-06T00:00:58.133Z,73.51
2019-03-06T00:03:27.977Z,73.59
2019-03-06T00:05:57.740Z,73.60
2019-03-06T00:08:27.488Z,73.59
2019-03-06T00:10:57.250Z,73.76
2019-03-06T00:13:26.995Z,73.74
2019-03-06T00:15:56.765Z,73.89
2019-03-06T00:18:26.591Z,73.76
2019-03-06T00:20:56.367Z,73.61
2019-03-06T00:23:26.112Z,73.75
2019-03-06T00:25:55.971Z,73.91
2019-03-06T00:28:25.719Z,73.84
2019-03-06T00:30:57.049Z,73.93
2019-03-06T00:33:26.790Z,74.11
2019-03-06T00:35:58.163Z,74.30
2019-03-06T00:38:27.929Z,74.30
2019-03-06T00:41:03.158Z,74.51
2019-03-06T00:43:32.998Z,74.73
2019-03-06T00:46:02.763Z,74.55
2019-03-06T00:48:32.820Z,74.55
2019-03-06T00:51:02.623Z,74.73
2019-03-06T00:53:32.396Z,74.59
2019-03-06T00:56:02.257Z,74.67
2019-03-06T00:58:32.021Z,74.79
2019-03-06T01:01:01.786Z,74.93
2019-03-06T01:03:31.559Z,74.95
2019-03-06T01:06:02.004Z,74.91
2019-03-06T01:08:31.764Z,74.98
2019-03-06T01:11:01.529Z,74.94
2019-03-06T01:13:31.290Z,74.96
2019-03-06T01:16:01.033Z,74.89
2019-03-06T01:18:30.803Z,75.13
2019-03-06T01:21:00.554Z,75.22
2019-03-06T01:23:30.505Z,75.10
2019-03-06T01:26:00.235Z,75.01
2019-03-06T01:28:29.998Z,75.05
2019-03-06T01:30:59.741Z,75.24
2019-03-06T01:33:43.096Z,75.58
2019-03-06T01:36:20.670Z,75.40
2019-03-06T01:38:57.937Z,75.68
2019-03-06T01:41:47.392Z,75.52
2019-03-06T01:44:18.735Z,75.43
2019-03-06T01:46:48.507Z,75.41
2019-03-06T01:49:18.305Z,75.46
2019-03-06T01:51:48.085Z,75.74
2019-03-06T01:54:18.000Z,75.68
2019-03-06T01:56:47.796Z,75.71
2019-03-06T01:59:17.595Z,76.04
2019-03-06T02:01:47.550Z,76.15
2019-03-06T02:04:17.334Z,76.19
2019-03-06T02:06:47.112Z,76.26
2019-03-06T02:09:18.513Z,76.27
2019-03-06T02:11:48.294Z,76.29
2019-03-06T02:14:18.071Z,76.29
2019-03-06T02:16:47.833Z,76.46
2019-03-06T02:19:17.573Z,76.23
2019-03-06T02:21:47.383Z,76.04
2019-03-06T02:24:17.691Z,76.00
2019-03-06T02:26:48.523Z,76.17
2019-03-06T02:29:18.270Z,75.99
2019-03-06T02:31:48.030Z,75.94
2019-03-06T02:34:17.839Z,76.03
2019-03-06T02:36:47.613Z,75.96
2019-03-06T02:39:17.485Z,76.01
2019-03-06T02:41:47.269Z,75.88
2019-03-06T02:44:17.050Z,75.75
2019-03-06T02:46:47.816Z,75.66
2019-03-06T02:49:17.872Z,75.70
2019-03-06T02:51:47.681Z,75.79
2019-03-06T02:54:17.461Z,75.70
2019-03-06T02:56:47.232Z,75.83
2019-03-06T02:59:24.404Z,75.79
2019-03-06T03:02:11.108Z,75.74
2019-03-06T03:04:42.461Z,75.87
2019-03-06T03:07:13.262Z,75.84
2019-03-06T03:09:43.055Z,76.08
2019-03-06T03:12:12.833Z,75.90
2019-03-06T03:14:42.619Z,75.96
2019-03-06T03:17:12.397Z,75.90
2019-03-06T03:19:42.160Z,76.06
2019-03-06T03:22:11.901Z,76.07
2019-03-06T03:24:41.673Z,75.98
2019-03-06T03:27:11.421Z,75.95
2019-03-06T03:29:41.223Z,75.91
2019-03-06T03:32:11.362Z,75.73
2019-03-06T03:34:41.173Z,75.88
2019-03-06T03:37:10.940Z,76.04
2019-03-06T03:39:40.752Z,76.10
2019-03-06T03:42:12.637Z,76.16
2019-03-06T03:44:42.442Z,76.33
2019-03-06T03:47:12.220Z,76.35
2019-03-06T03:49:42.036Z,76.36
2019-03-06T03:52:11.814Z,76.15
2019-03-06T03:54:41.594Z,76.03
2019-03-06T03:57:13.060Z,75.99
2019-03-06T03:59:42.869Z,75.90
2019-03-06T04:02:12.650Z,75.72
2019-03-06T04:04:42.453Z,75.67
2019-03-06T04:07:12.229Z,75.54
2019-03-06T04:09:42.188Z,75.63
2019-03-06T04:12:11.968Z,75.52
2019-03-06T04:14:41.737Z,75.49
2019-03-06T04:17:11.496Z,75.52
2019-03-06T04:19:41.242Z,75.47
2019-03-06T04:22:11.306Z,75.43
2019-03-06T04:24:41.046Z,75.37
2019-03-06T04:27:10.819Z,75.47
2019-03-06T04:29:40.561Z,75.42
2019-03-06T04:32:10.372Z,75.40
2019-03-06T04:34:40.385Z,75.32
2019-03-06T04:37:10.177Z,75.24
2019-03-06T04:39:39.914Z,75.16
2019-03-06T04:42:09.682Z,75.04
2019-03-06T04:44:39.462Z,75.15
2019-03-06T04:47:09.276Z,75.16
2019-03-06T04:49:39.042Z,75.31
2019-03-06T04:52:08.824Z,75.31
2019-03-06T04:54:38.596Z,75.45
2019-03-06T04:57:08.332Z,75.44
2019-03-06T04:59:38.111Z,75.42
2019-03-06T05:02:07.862Z,75.46
2019-03-06T05:04:37.655Z,75.73
2019-03-06T05:07:07.409Z,75.45
2019-03-06T05:09:37.219Z,75.47
2019-03-06T05:12:06.980Z,75.34
2019-03-06T05:14:36.759Z,75.43
2019-03-06T05:17:08.213Z,75.36
2019-03-06T05:19:38.114Z,75.55
2019-03-06T05:22:08.170Z,75.67
2019-03-06T05:24:37.984Z,75.52
2019-03-06T05:27:07.746Z,75.49
2019-03-06T05:29:37.530Z,75.68
2019-03-06T05:32:27.422Z,75.65
2019-03-06T05:34:59.325Z,75.91
2019-03-06T05:37:51.962Z,75.69
2019-03-06T05:40:21.761Z,75.78
2019-03-06T05:42:51.632Z,75.75
2019-03-06T05:45:21.434Z,75.88
2019-03-06T05:47:51.208Z,76.25
2019-03-06T05:50:21.299Z,76.41
2019-03-06T05:52:51.082Z,76.32
2019-03-06T05:55:20.884Z,75.83
2019-03-06T05:57:50.655Z,75.68
2019-03-06T06:00:22.032Z,75.33
2019-03-06T06:02:51.862Z,75.25
2019-03-06T06:05:21.676Z,74.91
2019-03-06T06:07:51.456Z,74.66
2019-03-06T06:10:21.228Z,74.72
2019-03-06T06:12:51.185Z,74.33
2019-03-06T06:15:20.924Z,74.27
2019-03-06T06:17:50.708Z,74.26
2019-03-06T06:20:20.567Z,73.88
2019-03-06T06:22:51.935Z,73.55
2019-03-06T06:25:21.674Z,73.38
2019-03-06T06:27:51.520Z,73.10
2019-03-06T06:30:22.099Z,73.15
2019-03-06T06:32:52.038Z,73.03
2019-03-06T06:35:21.781Z,72.65
2019-03-06T06:37:51.583Z,72.54
2019-03-06T06:40:21.320Z,71.99
2019-03-06T06:42:51.100Z,71.86
2019-03-06T06:45:20.876Z,71.33
2019-03-06T06:48:10.929Z,71.08
2019-03-06T06:50:49.457Z,70.87
2019-03-06T06:53:40.631Z,70.45
2019-03-06T06:56:37.874Z,70.03
2019-03-06T06:59:11.443Z,70.24
2019-03-06T07:01:57.973Z,70.14
2019-03-06T07:04:51.885Z,69.76
2019-03-06T07:07:29.017Z,69.55
2019-03-06T07:10:00.394Z,69.37
2019-03-06T07:12:34.545Z,69.55
2019-03-06T07:15:13.304Z,69.41
2019-03-06T07:17:44.689Z,69.25
2019-03-06T07:20:17.779Z,69.05
2019-03-06T07:22:55.094Z,69.02
2019-03-06T07:25:26.469Z,69.17
2019-03-06T07:27:57.818Z,69.37
2019-03-06T07:30:35.282Z,69.18
2019-03-06T07:33:12.391Z,69.10
2019-03-06T07:36:06.020Z,68.86
2019-03-06T07:38:36.890Z,68.68
2019-03-06T07:41:08.262Z,68.81
2019-03-06T07:43:45.815Z,68.59
2019-03-06T07:46:17.455Z,68.27
2019-03-06T07:49:06.415Z,68.04
2019-03-06T07:51:37.783Z,68.36
2019-03-06T07:54:15.206Z,68.16
2019-03-06T07:56:56.328Z,68.15
2019-03-06T07:59:26.097Z,68.16
2019-03-06T08:01:58.995Z,67.80
2019-03-06T08:04:28.772Z,67.92
2019-03-06T08:07:00.140Z,67.20
2019-03-06T08:09:29.991Z,67.16
2019-03-06T08:12:01.374Z,67.30
2019-03-06T08:14:38.743Z,67.10
2019-03-06T08:17:26.611Z,67.16
2019-03-06T08:19:58.237Z,66.98
2019-03-06T08:22:38.903Z,67.00
2019-03-06T08:25:13.094Z,66.74
2019-03-06T08:27:42.903Z,66.46
2019-03-06T08:30:12.782Z,66.42
2019-03-06T08:32:42.569Z,66.63
2019-03-06T08:35:12.383Z,66.14
2019-03-06T08:37:42.116Z,65.80
2019-03-06T08:40:12.598Z,66.30
2019-03-06T08:42:42.347Z,65.68
2019-03-06T08:45:15.432Z,65.48
2019-03-06T08:47:46.735Z,65.39
2019-03-06T08:50:18.128Z,65.25
2019-03-06T08:52:49.431Z,64.98
2019-03-06T08:55:29.606Z,65.26
2019-03-06T08:58:19.319Z,64.94
2019-03-06T09:01:07.081Z,64.80
2019-03-06T09:03:47.406Z,64.42
2019-03-06T09:06:30.908Z,64.54
2019-03-06T09:09:08.128Z,64.81
2019-03-06T09:11:45.496Z,64.02
2019-03-06T09:14:20.193Z,64.22
2019-03-06T09:17:01.396Z,63.71
2019-03-06T09:19:48.972Z,63.71
2019-03-06T09:22:32.731Z,63.51
2019-03-06T09:25:04.069Z,63.67
2019-03-06T09:27:35.456Z,63.07
2019-03-06T09:30:30.067Z,62.67
2019-03-06T09:33:04.170Z,62.46
2019-03-06T09:35:41.441Z,62.39
2019-03-06T09:38:29.055Z,62.26
2019-03-06T09:41:17.098Z,62.41
2019-03-06T09:43:57.308Z,61.85
2019-03-06T09:46:34.665Z,61.92
2019-03-06T09:49:12.051Z,61.31
2019-03-06T09:51:43.395Z,60.86
2019-03-06T09:54:23.860Z,61.03
2019-03-06T09:56:55.216Z,60.67
2019-03-06T09:59:28.856Z,60.95
2019-03-06T10:02:06.719Z,60.48
2019-03-06T10:04:35.983Z,59.92
2019-03-06T10:07:10.309Z,59.95
2019-03-06T10:09:41.671Z,59.37
2019-03-06T10:12:19.040Z,58.95
2019-03-06T10:14:56.537Z,58.40
2019-03-06T10:17:33.863Z,57.83
2019-03-06T10:20:05.640Z,57.94
2019-03-06T10:22:35.403Z,57.22
2019-03-06T10:25:07.093Z,56.33
2019-03-06T10:27:36.878Z,57.09
2019-03-06T10:30:12.142Z,56.75
2019-03-06T10:32:42.189Z,57.22
2019-03-06T10:35:15.961Z,56.56
2019-03-06T10:37:45.815Z,55.66
2019-03-06T10:40:17.483Z,56.79
2019-03-06T10:42:47.252Z,55.62
2019-03-06T10:45:17.738Z,56.03
2019-03-06T10:47:47.896Z,55.38
2019-03-06T10:50:26.918Z,55.44
2019-03-06T10:52:53.721Z,54.41
2019-03-06T10:55:23.525Z,54.33
2019-03-06T10:57:53.571Z,54.16
2019-03-06T11:00:30.623Z,54.10
2019-03-06T11:03:00.685Z,53.46
2019-03-06T11:05:32.012Z,53.04
2019-03-06T11:08:02.103Z,52.90
2019-03-06T11:10:33.526Z,51.74
2019-03-06T11:13:08.499Z,51.94
2019-03-06T11:15:38.175Z,50.88
2019-03-06T11:18:08.337Z,50.62
2019-03-06T11:20:38.341Z,50.19
2019-03-06T11:23:11.764Z,50.81
2019-03-06T11:25:42.075Z,50.39
2019-03-06T11:28:13.019Z,49.61
2019-03-06T11:30:51.088Z,47.78
2019-03-06T11:33:21.968Z,47.93
2019-03-06T11:35:53.074Z,47.30
2019-03-06T11:38:22.841Z,47.90
2019-03-06T11:40:52.702Z,48.53
2019-03-06T11:43:22.470Z,47.41
2019-03-06T11:45:52.209Z,46.97
2019-03-06T11:48:22.025Z,47.41
2019-03-06T11:50:51.762Z,47.26
2019-03-06T11:53:21.551Z,46.92
2019-03-06T11:55:51.313Z,47.28
2019-03-06T11:58:21.617Z,47.09
2019-03-06T12:00:51.402Z,47.61
2019-03-06T12:03:22.297Z,48.21
2019-03-06T12:05:52.068Z,47.79
2019-03-06T12:08:21.852Z,47.06
2019-03-06T12:10:51.731Z,46.67
2019-03-06T12:13:21.486Z,46.85
2019-03-06T12:15:51.781Z,46.78
2019-03-06T12:18:23.065Z,46.31
2019-03-06T12:20:53.168Z,46.41
2019-03-06T12:23:22.999Z,47.02
2019-03-06T12:25:52.858Z,45.40
2019-03-06T12:28:22.610Z,44.77
2019-03-06T12:30:52.493Z,44.82
2019-03-06T12:33:27.108Z,44.84
2019-03-06T12:35:56.906Z,44.92
2019-03-06T12:38:26.641Z,44.04
2019-03-06T12:40:56.448Z,43.04
2019-03-06T12:43:26.199Z,43.02
2019-03-06T12:46:22.830Z,42.93
2019-03-06T12:48:48.169Z,42.45
2019-03-06T12:51:17.965Z,41.84
2019-03-06T12:53:47.917Z,41.32
2019-03-06T12:56:18.170Z,41.19
2019-03-06T12:58:48.070Z,41.36
2019-03-06T13:01:17.886Z,41.26
2019-03-06T13:03:47.686Z,40.95
2019-03-06T13:06:24.581Z,40.20
2019-03-06T13:08:50.605Z,40.49
2019-03-06T13:11:20.481Z,40.78
2019-03-06T13:13:50.260Z,40.90
2019-03-06T13:16:20.030Z,40.70
2019-03-06T13:18:49.816Z,39.83
2019-03-06T13:21:19.735Z,39.96
2019-03-06T13:23:49.535Z,40.04
2019-03-06T13:26:19.271Z,39.92
2019-03-06T13:28:57.046Z,40.09
2019-03-06T13:31:20.527Z,40.99
2019-03-06T13:33:58.376Z,40.64
2019-03-06T13:36:28.167Z,40.71
2019-03-06T13:39:06.014Z,40.83
2019-03-06T13:41:29.539Z,41.14
2019-03-06T13:43:59.298Z,41.17
2019-03-06T13:46:29.316Z,41.14
2019-03-06T13:48:59.132Z,41.18
2019-03-06T13:51:28.913Z,41.28
2019-03-06T13:53:58.693Z,41.73
2019-03-06T13:56:28.502Z,41.72
2019-03-06T13:58:58.355Z,42.03
2019-03-06T14:01:28.323Z,42.52
2019-03-06T14:03:58.096Z,42.33
2019-03-06T14:06:27.868Z,41.06
2019-03-06T14:08:57.642Z,39.29
2019-03-06T14:11:27.374Z,39.65
2019-03-06T14:13:57.180Z,39.32
2019-03-06T14:16:26.988Z,39.67
2019-03-06T14:18:56.821Z,39.72
2019-03-06T14:21:26.595Z,39.44
2019-03-06T14:23:56.716Z,38.84
2019-03-06T14:26:26.496Z,38.55
2019-03-06T14:28:56.479Z,37.89
2019-03-06T14:31:26.249Z,38.26
2019-03-06T14:33:56.347Z,38.29
2019-03-06T14:36:26.225Z,39.22
2019-03-06T14:38:56.012Z,39.05
2019-03-06T14:41:25.874Z,39.59
2019-03-06T14:43:55.631Z,39.39
2019-03-06T14:46:25.444Z,40.10
2019-03-06T14:48:55.286Z,40.75
2019-03-06T14:51:25.077Z,41.35
2019-03-06T14:53:54.861Z,41.71
2019-03-06T14:56:24.672Z,42.04
2019-03-06T14:58:54.442Z,41.95
2019-03-06T15:01:24.241Z,42.25
2019-03-06T15:03:54.021Z,41.73
2019-03-06T15:06:23.810Z,41.41
2019-03-06T15:08:53.647Z,41.08
2019-03-06T15:11:23.564Z,40.88
2019-03-06T15:13:54.440Z,41.31
2019-03-06T15:16:24.198Z,40.50
2019-03-06T15:18:53.968Z,40.38
2019-03-06T15:21:23.754Z,40.94
2019-03-06T15:23:53.852Z,40.99
2019-03-06T15:26:23.637Z,41.44
2019-03-06T15:28:53.443Z,41.66
2019-03-06T15:31:23.233Z,42.30
2019-03-06T15:33:53.137Z,42.02
2019-03-06T15:36:22.924Z,42.13
2019-03-06T15:38:52.825Z,42.80
2019-03-06T15:41:22.617Z,43.51
2019-03-06T15:43:52.365Z,43.62
2019-03-06T15:46:22.170Z,43.98
2019-03-06T15:48:51.915Z,44.13
2019-03-06T15:51:21.972Z,44.41
2019-03-06T15:53:51.749Z,45.00
2019-03-06T15:56:21.531Z,45.11
2019-03-06T15:58:51.327Z,45.34
2019-03-06T16:01:21.086Z,45.37
2019-03-06T16:03:51.207Z,45.57
2019-03-06T16:06:21.050Z,46.04
2019-03-06T16:08:50.837Z,46.11
2019-03-06T16:11:20.632Z,46.32
2019-03-06T16:13:50.454Z,46.62
2019-03-06T16:16:20.480Z,46.73
2019-03-06T16:18:50.468Z,47.06
2019-03-06T16:21:20.306Z,47.37
2019-03-06T16:23:50.116Z,47.37
2019-03-06T16:26:19.933Z,47.65
2019-03-06T16:28:49.760Z,47.92
2019-03-06T16:31:19.759Z,48.13
2019-03-06T16:33:49.503Z,48.21
2019-03-06T16:36:19.311Z,48.18
2019-03-06T16:38:49.062Z,48.45
2019-03-06T16:41:18.857Z,48.45
2019-03-06T16:43:48.707Z,48.27
2019-03-06T16:46:18.488Z,48.29
2019-03-06T16:48:48.359Z,48.40
2019-03-06T16:51:18.093Z,48.52
2019-03-06T16:53:47.892Z,48.43
2019-03-06T16:56:17.664Z,48.93
2019-03-06T16:58:47.712Z,48.71
2019-03-06T17:01:17.581Z,48.89
2019-03-06T17:03:47.371Z,49.39
2019-03-06T17:06:17.214Z,48.93
2019-03-06T17:08:46.952Z,49.22
2019-03-06T17:11:16.879Z,49.43
2019-03-06T17:13:46.735Z,49.28
2019-03-06T17:16:16.972Z,49.52
2019-03-06T17:18:46.696Z,49.55
2019-03-06T17:21:16.595Z,49.67
2019-03-06T17:23:46.346Z,50.05
2019-03-06T17:26:16.764Z,50.11
2019-03-06T17:28:47.540Z,50.01
2019-03-06T17:31:17.339Z,49.81
2019-03-06T17:33:47.089Z,50.01
2019-03-06T17:36:16.917Z,50.18
2019-03-06T17:38:46.683Z,50.37
2019-03-06T17:41:16.459Z,50.38
2019-03-06T17:43:46.238Z,50.29
2019-03-06T17:46:16.042Z,50.69
2019-03-06T17:48:45.827Z,50.50
2019-03-06T17:51:15.595Z,51.07
2019-03-06T17:53:45.660Z,50.90
2019-03-06T17:56:15.405Z,50.37
2019-03-06T17:58:45.213Z,49.96
2019-03-06T18:01:16.531Z,49.39
2019-03-06T18:03:50.719Z,49.37
2019-03-06T18:06:19.442Z,49.14
2019-03-06T18:08:49.250Z,49.65
2019-03-06T18:11:18.993Z,48.98
2019-03-06T18:13:48.778Z,49.07
2019-03-06T18:16:21.110Z,49.03
2019-03-06T18:18:51.874Z,49.80
2019-03-06T18:21:22.907Z,49.29
2019-03-06T18:23:54.006Z,49.27
2019-03-06T18:26:24.544Z,49.09
2019-03-06T18:28:55.581Z,49.18
2019-03-06T18:31:26.061Z,49.23
2019-03-06T18:33:56.655Z,49.49
2019-03-06T18:36:27.523Z,49.17
2019-03-06T18:38:57.801Z,49.04
2019-03-06T18:41:27.710Z,48.76
2019-03-06T18:43:57.514Z,49.33
2019-03-06T18:46:27.567Z,49.14
2019-03-06T18:48:57.390Z,49.47
2019-03-06T18:51:27.186Z,49.57
2019-03-06T18:53:56.999Z,49.57
2019-03-06T18:56:58.312Z,49.85
2019-03-06T19:00:14.243Z,49.97
2019-03-06T19:03:04.471Z,49.87
2019-03-06T19:05:41.384Z,50.25
2019-03-06T19:08:19.604Z,50.06
2019-03-06T19:10:57.252Z,50.12
2019-03-06T19:13:37.687Z,50.23
2019-03-06T19:16:08.424Z,50.35
2019-03-06T19:18:40.886Z,50.51
2019-03-06T19:21:17.871Z,50.97
2019-03-06T19:23:53.615Z,50.77
2019-03-06T19:26:34.697Z,50.79
2019-03-06T19:29:13.431Z,50.80
2019-03-06T19:38:49.648Z,51.18
2019-03-06T19:41:09.767Z,51.27
2019-03-06T19:43:48.008Z,51.38
2019-03-06T19:46:31.636Z,51.47
2019-03-06T19:49:21.979Z,51.70
2019-03-06T19:51:58.971Z,51.85
2019-03-06T19:54:37.475Z,52.07
2019-03-06T19:57:30.149Z,52.23
2019-03-06T20:00:03.637Z,52.62
2019-03-06T20:02:40.887Z,52.72
2019-03-06T20:05:16.296Z,52.89
2019-03-06T20:07:52.534Z,52.96
2019-03-06T20:10:23.635Z,53.19
2019-03-06T20:12:55.287Z,53.11
2019-03-06T20:15:30.309Z,53.26
2019-03-06T20:18:25.337Z,53.43
2019-03-06T20:20:48.138Z,53.36
2019-03-06T20:23:19.902Z,53.51
2019-03-06T20:25:55.365Z,53.82
2019-03-06T20:28:37.758Z,54.02
2019-03-06T20:31:17.205Z,54.43
2019-03-06T20:33:57.567Z,54.16
2019-03-06T20:36:39.536Z,54.28
2019-03-06T20:39:12.966Z,54.46
2019-03-06T20:41:57.266Z,54.50
2019-03-06T20:44:32.526Z,54.82
2019-03-06T20:47:04.128Z,55.00
2019-03-06T20:49:35.645Z,54.99
2019-03-06T20:52:10.628Z,55.29
2019-03-06T20:54:52.633Z,55.36
2019-03-06T20:57:27.314Z,55.28
2019-03-06T21:00:12.773Z,55.39
2019-03-06T21:02:49.194Z,55.60
2019-03-06T21:05:19.666Z,55.70
2019-03-06T21:08:05.078Z,55.90
2019-03-06T21:10:24.662Z,56.11
2019-03-06T21:12:54.937Z,56.22
2019-03-06T21:15:32.643Z,56.07
2019-03-06T21:18:04.478Z,56.31
2019-03-06T21:20:42.994Z,56.29
2019-03-06T21:23:14.764Z,56.14
2019-03-06T21:25:46.703Z,56.17
2019-03-06T21:31:22.948Z,56.26
2019-03-06T21:33:55.125Z,56.14
2019-03-06T21:36:25.332Z,56.14
2019-03-06T21:39:00.466Z,56.14
2019-03-06T21:41:30.373Z,56.24
2019-03-06T21:44:01.965Z,56.10
2019-03-06T21:46:31.811Z,56.06
2019-03-06T21:49:01.549Z,56.19
2019-03-06T21:51:31.323Z,56.11
2019-03-06T21:54:01.090Z,55.91
2019-03-06T21:56:30.824Z,56.02
2019-03-06T21:59:00.786Z,56.16
2019-03-06T22:01:31.626Z,56.16
2019-03-06T22:04:01.751Z,56.15
2019-03-06T22:06:31.662Z,56.13
2019-03-06T22:09:01.444Z,56.18
2019-03-06T22:11:31.320Z,56.23
2019-03-06T22:14:01.100Z,56.28
2019-03-06T22:16:30.892Z,56.12
2019-03-06T22:19:01.053Z,56.13
2019-03-06T22:21:30.915Z,55.94
2019-03-06T22:24:00.725Z,56.34
2019-03-06T22:26:30.518Z,56.35
2019-03-06T22:29:00.251Z,56.58
2019-03-06T22:31:30.056Z,56.61
2019-03-06T22:33:59.786Z,56.96
2019-03-06T22:36:29.549Z,56.70
2019-03-06T22:38:59.309Z,56.63
2019-03-06T22:41:29.189Z,56.77
2019-03-06T22:43:58.964Z,57.11
2019-03-06T22:46:28.726Z,57.22
2019-03-06T22:48:58.490Z,57.79
2019-03-06T22:51:28.254Z,57.65
2019-03-06T22:53:58.110Z,57.44
2019-03-06T22:56:27.836Z,57.71
2019-03-06T22:58:57.597Z,57.57
2019-03-06T23:01:27.375Z,57.60
2019-03-06T23:03:57.148Z,57.57
2019-03-06T23:06:26.926Z,57.50
2019-03-06T23:08:56.685Z,57.55
2019-03-06T23:11:26.553Z,57.64
2019-03-06T23:13:56.287Z,57.75
2019-03-06T23:16:26.059Z,57.63
2019-03-06T23:18:55.823Z,57.72
2019-03-06T23:21:25.693Z,57.75
2019-03-06T23:23:55.477Z,57.78
2019-03-06T23:26:25.245Z,57.78
2019-03-06T23:28:55.011Z,57.98
2019-03-06T23:31:24.752Z,58.17
2019-03-06T23:33:54.918Z,58.10
2019-03-06T23:36:24.655Z,58.15
2019-03-06T23:38:54.413Z,58.07
2019-03-06T23:41:24.175Z,58.38
2019-03-06T23:43:53.949Z,58.49
2019-03-06T23:46:23.722Z,58.36
2019-03-06T23:48:53.686Z,58.54
2019-03-06T23:51:25.025Z,58.48
2019-03-06T23:53:54.820Z,58.62
2019-03-06T23:56:24.660Z,58.56
2019-03-06T23:58:54.417Z,58.75
